Time,TemperatureF,DewpointF,PressureIn,WindDirection,WindDirectionDegrees,WindSpeedMPH,WindSpeedGustMPH,Humidity,HourlyPrecipIn,Conditions,Clouds,dailyrainin,SoftwareType,DateUTC
2014-09-18 00:04:00,59.9,53.0,29.79,South,174,3.0,10.0,78,0.00,,,0.00,Wunderground v.1.15,2014-09-18 06:04:00,
2014-09-18 00:09:00,59.8,52.9,29.80,South,172,2.0,10.0,78,0.00,,,0.00,Wunderground v.1.15,2014-09-18 06:09:00,
2014-09-18 00:14:00,59.5,52.6,29.79,SSE,152,1.0,10.0,78,0.00,,,0.00,Wunderground v.1.15,2014-09-18 06:14:00,
2014-09-18 00:19:00,59.2,52.7,29.79,SSE,152,0.0,10.0,79,0.00,,,0.00,Wunderground v.1.15,2014-09-18 06:19:00,
2014-09-18 00:25:00,59.1,52.6,29.79,SSE,149,0.0,10.0,79,0.00,,,0.00,Wunderground v.1.15,2014-09-18 06:25:00,
2014-09-18 00:30:00,59.0,52.5,29.79,SSE,149,0.0,10.0,79,0.00,,,0.00,Wunderground v.1.15,2014-09-18 06:30:00,
2014-09-18 00:35:00,58.9,52.7,29.79,SSE,147,0.0,10.0,80,0.00,,,0.00,Wunderground v.1.15,2014-09-18 06:35:00,
2014-09-18 00:41:00,58.9,52.7,29.79,SE,141,1.0,10.0,80,0.00,,,0.00,Wunderground v.1.15,2014-09-18 06:41:00,
2014-09-18 00:46:00,58.8,52.6,29.78,SE,141,1.0,10.0,80,0.00,,,0.00,Wunderground v.1.15,2014-09-18 06:46:00,
2014-09-18 00:51:00,58.6,52.4,29.78,SE,141,0.0,10.0,80,0.00,,,0.00,Wunderground v.1.15,2014-09-18 06:51:00,
2014-09-18 00:57:00,58.3,52.2,29.78,SE,141,0.0,10.0,80,0.00,,,0.00,Wunderground v.1.15,2014-09-18 06:57:00,
2014-09-18 01:02:00,58.0,52.2,29.78,SE,141,0.0,10.0,81,0.00,,,0.00,Wunderground v.1.15,2014-09-18 07:02:00,
2014-09-18 01:07:00,57.4,51.6,29.78,SE,141,0.0,10.0,81,0.00,,,0.00,Wunderground v.1.15,2014-09-18 07:07:00,
2014-09-18 01:12:00,57.1,51.7,29.78,SE,141,0.0,10.0,82,0.00,,,0.00,Wunderground v.1.15,2014-09-18 07:12:00,
2014-09-18 01:18:00,56.8,51.7,29.77,SE,141,0.0,10.0,83,0.00,,,0.00,Wunderground v.1.15,2014-09-18 07:18:00,
2014-09-18 01:23:00,56.7,51.9,29.77,SE,141,0.0,10.0,84,0.00,,,0.00,Wunderground v.1.15,2014-09-18 07:23:00,
2014-09-18 01:28:00,56.6,51.8,29.77,SE,141,0.0,10.0,84,0.00,,,0.00,Wunderground v.1.15,2014-09-18 07:28:00,
2014-09-18 01:34:00,56.5,52.0,29.77,SE,141,0.0,10.0,85,0.00,,,0.00,Wunderground v.1.15,2014-09-18 07:34:00,
2014-09-18 01:39:00,56.3,51.8,29.77,SE,141,0.0,10.0,85,0.00,,,0.00,Wunderground v.1.15,2014-09-18 07:39:00,
2014-09-18 01:44:00,56.3,51.8,29.76,SE,141,0.0,10.0,85,0.00,,,0.00,Wunderground v.1.15,2014-09-18 07:44:00,
2014-09-18 01:50:00,56.3,51.8,29.76,SE,141,0.0,10.0,85,0.00,,,0.00,Wunderground v.1.15,2014-09-18 07:50:00,
2014-09-18 01:51:00,56.3,51.8,29.76,SE,141,0.0,10.0,85,0.00,,,0.00,Wunderground v.1.15,2014-09-18 07:51:00,
2014-09-18 01:56:00,56.2,51.7,29.76,SE,141,0.0,10.0,85,0.00,,,0.00,Wunderground v.1.15,2014-09-18 07:56:00,
2014-09-18 02:01:00,55.8,51.4,29.76,SE,141,0.0,0.0,85,0.00,,,0.00,Wunderground v.1.15,2014-09-18 08:01:00,
2014-09-18 02:07:00,55.6,51.2,29.75,SE,141,0.0,0.0,85,0.00,,,0.00,Wunderground v.1.15,2014-09-18 08:07:00,
2014-09-18 02:12:00,55.1,51.0,29.75,SE,141,0.0,0.0,86,0.00,,,0.00,Wunderground v.1.15,2014-09-18 08:12:00,
2014-09-18 02:17:00,55.1,51.3,29.75,SE,141,0.0,0.0,87,0.00,,,0.00,Wunderground v.1.15,2014-09-18 08:17:00,
2014-09-18 02:23:00,55.2,51.4,29.75,SE,142,0.0,2.0,87,0.00,,,0.00,Wunderground v.1.15,2014-09-18 08:23:00,
2014-09-18 02:28:00,55.1,51.3,29.75,SSE,166,1.0,2.0,87,0.00,,,0.00,Wunderground v.1.15,2014-09-18 08:28:00,
2014-09-18 02:33:00,55.1,51.3,29.74,SSE,152,1.0,2.0,87,0.00,,,0.00,Wunderground v.1.15,2014-09-18 08:33:00,
2014-09-18 02:39:00,54.9,51.1,29.74,SSE,168,1.0,3.0,87,0.00,,,0.00,Wunderground v.1.15,2014-09-18 08:39:00,
2014-09-18 02:44:00,55.0,51.5,29.74,SSE,161,1.0,2.0,88,0.00,,,0.00,Wunderground v.1.15,2014-09-18 08:44:00,
2014-09-18 02:49:00,55.1,51.6,29.74,SSE,158,2.0,4.0,88,0.00,,,0.00,Wunderground v.1.15,2014-09-18 08:49:00,
2014-09-18 02:54:00,55.4,52.2,29.73,SSE,166,2.0,5.0,89,0.00,,,0.00,Wunderground v.1.15,2014-09-18 08:54:00,
2014-09-18 03:00:00,55.6,52.1,29.73,South,170,3.0,5.0,88,0.00,,,0.00,Wunderground v.1.15,2014-09-18 09:00:00,
2014-09-18 03:05:00,55.6,52.1,29.73,SSE,167,4.0,5.0,88,0.00,,,0.00,Wunderground v.1.15,2014-09-18 09:05:00,
2014-09-18 03:10:00,55.6,52.1,29.73,SSE,160,4.0,4.0,88,0.00,,,0.00,Wunderground v.1.15,2014-09-18 09:10:00,
2014-09-18 03:16:00,55.7,52.2,29.73,SSE,160,4.0,5.0,88,0.00,,,0.00,Wunderground v.1.15,2014-09-18 09:16:00,
2014-09-18 03:21:00,55.7,52.2,29.72,SE,137,4.0,6.0,88,0.00,,,0.00,Wunderground v.1.15,2014-09-18 09:21:00,
2014-09-18 03:26:00,55.8,52.3,29.72,SSE,166,5.0,6.0,88,0.00,,,0.00,Wunderground v.1.15,2014-09-18 09:26:00,
2014-09-18 03:32:00,55.8,52.3,29.72,SSE,165,4.0,6.0,88,0.00,,,0.00,Wunderground v.1.15,2014-09-18 09:32:00,
2014-09-18 03:37:00,55.8,52.3,29.72,SSE,153,4.0,6.0,88,0.00,,,0.00,Wunderground v.1.15,2014-09-18 09:37:00,
2014-09-18 03:42:00,56.0,52.5,29.71,South,174,5.0,8.0,88,0.00,,,0.00,Wunderground v.1.15,2014-09-18 09:42:00,
2014-09-18 03:47:00,56.1,52.3,29.71,SSE,152,6.0,8.0,87,0.00,,,0.00,Wunderground v.1.15,2014-09-18 09:47:00,
2014-09-18 03:53:00,56.0,52.5,29.71,SSE,159,6.0,9.0,88,0.00,,,0.00,Wunderground v.1.15,2014-09-18 09:53:00,
2014-09-18 03:58:00,56.2,52.7,29.71,SSE,151,6.0,9.0,88,0.00,,,0.00,Wunderground v.1.15,2014-09-18 09:58:00,
2014-09-18 04:03:00,56.1,52.3,29.71,South,180,5.0,7.0,87,0.00,,,0.00,Wunderground v.1.15,2014-09-18 10:03:00,
2014-09-18 04:09:00,56.1,52.3,29.71,SSE,168,5.0,7.0,87,0.00,,,0.00,Wunderground v.1.15,2014-09-18 10:09:00,
2014-09-18 04:14:00,55.9,52.1,29.71,SSE,154,5.0,7.0,87,0.00,,,0.00,Wunderground v.1.15,2014-09-18 10:14:00,
2014-09-18 04:19:00,55.4,51.6,29.71,SE,143,4.0,7.0,87,0.00,,,0.00,Wunderground v.1.15,2014-09-18 10:19:00,
2014-09-18 04:25:00,55.0,51.5,29.71,SE,145,3.0,4.0,88,0.00,,,0.00,Wunderground v.1.15,2014-09-18 10:25:00,
2014-09-18 04:26:00,54.9,51.4,29.71,SE,145,2.0,4.0,88,0.00,,,0.00,Wunderground v.1.15,2014-09-18 10:26:00,
2014-09-18 04:31:00,54.7,51.2,29.71,SE,145,1.0,1.0,88,0.00,,,0.00,Wunderground v.1.15,2014-09-18 10:31:00,
2014-09-18 04:36:00,54.4,50.9,29.71,SE,145,0.0,1.0,88,0.00,,,0.00,Wunderground v.1.15,2014-09-18 10:36:00,
2014-09-18 04:41:00,54.3,51.1,29.71,SE,126,1.0,6.0,89,0.00,,,0.00,Wunderground v.1.15,2014-09-18 10:41:00,
2014-09-18 04:47:00,55.5,52.3,29.71,South,171,3.0,7.0,89,0.00,,,0.00,Wunderground v.1.15,2014-09-18 10:47:00,
2014-09-18 04:52:00,55.7,51.9,29.70,SSE,161,3.0,4.0,87,0.00,,,0.00,Wunderground v.1.15,2014-09-18 10:52:00,
2014-09-18 04:54:00,55.6,51.8,29.70,South,170,2.0,5.0,87,0.00,,,0.00,Wunderground v.1.15,2014-09-18 10:54:00,
2014-09-18 04:59:00,55.5,51.7,29.70,South,174,2.0,5.0,87,0.00,,,0.00,Wunderground v.1.15,2014-09-18 10:59:00,
2014-09-18 05:05:00,55.5,51.7,29.70,ESE,121,1.0,2.0,87,0.00,,,0.00,Wunderground v.1.15,2014-09-18 11:05:00,
2014-09-18 05:10:00,55.5,52.0,29.70,East,87,1.0,1.0,88,0.00,,,0.00,Wunderground v.1.15,2014-09-18 11:10:00,
2014-09-18 05:15:00,55.5,51.7,29.69,East,87,1.0,1.0,87,0.00,,,0.00,Wunderground v.1.15,2014-09-18 11:15:00,
2014-09-18 05:21:00,55.5,51.7,29.69,East,97,0.0,1.0,87,0.00,,,0.00,Wunderground v.1.15,2014-09-18 11:21:00,
2014-09-18 05:26:00,55.5,51.7,29.69,East,100,0.0,1.0,87,0.00,,,0.00,Wunderground v.1.15,2014-09-18 11:26:00,
2014-09-18 05:31:00,55.3,51.5,29.69,ESE,116,0.0,1.0,87,0.00,,,0.00,Wunderground v.1.15,2014-09-18 11:31:00,
2014-09-18 05:37:00,55.4,52.2,29.69,South,179,1.0,9.0,89,0.00,,,0.00,Wunderground v.1.15,2014-09-18 11:37:00,
2014-09-18 05:42:00,55.9,52.4,29.68,South,171,4.0,8.0,88,0.00,,,0.00,Wunderground v.1.15,2014-09-18 11:42:00,
2014-09-18 05:47:00,56.4,52.6,29.68,South,174,8.0,13.0,87,0.00,,,0.00,Wunderground v.1.15,2014-09-18 11:47:00,
2014-09-18 05:52:00,56.8,52.7,29.68,South,184,10.0,14.0,86,0.00,,,0.00,Wunderground v.1.15,2014-09-18 11:52:00,
2014-09-18 05:58:00,57.1,52.6,29.68,South,177,11.0,14.0,85,0.00,,,0.00,Wunderground v.1.15,2014-09-18 11:58:00,
2014-09-18 06:03:00,56.9,52.4,29.67,South,185,11.0,12.0,85,0.00,,,0.00,Wunderground v.1.15,2014-09-18 12:03:00,
2014-09-18 06:08:00,57.1,52.6,29.67,South,177,11.0,12.0,85,0.00,,,0.00,Wunderground v.1.15,2014-09-18 12:08:00,
2014-09-18 06:14:00,57.3,52.5,29.68,South,187,10.0,14.0,84,0.00,,,0.00,Wunderground v.1.15,2014-09-18 12:14:00,
2014-09-18 06:19:00,57.5,53.0,29.68,South,179,9.0,14.0,85,0.00,,,0.00,Wunderground v.1.15,2014-09-18 12:19:00,
2014-09-18 06:24:00,57.7,52.9,29.68,SSE,159,7.0,9.0,84,0.00,,,0.00,Wunderground v.1.15,2014-09-18 12:24:00,
2014-09-18 06:30:00,57.6,52.8,29.68,ESE,112,3.0,3.0,84,0.00,,,0.00,Wunderground v.1.15,2014-09-18 12:30:00,
2014-09-18 06:35:00,56.9,51.5,29.68,NNW,347,1.0,3.0,82,0.00,,,0.00,Wunderground v.1.15,2014-09-18 12:35:00,
2014-09-18 06:40:00,56.2,51.4,29.68,NNW,338,1.0,1.0,84,0.00,,,0.00,Wunderground v.1.15,2014-09-18 12:40:00,